Time;durP1;ratioP1;P1;durP2;ratioP2;P2;SDS_P1;SDS_P2;PMS_P1;PMS_P2;Temp;Humidity;BMP_temperature;BMP_pressure;BME280_temperature;BME280_humidity;BME280_pressure;Samples;Min_cycle;Max_cycle;Signal;HPM_P1;HPM_P2
2021/07/15 00:00:34;;;;;;;10.88;5.10;;;;;;;23.17;84.00;99662.72;5056566;28;20107;-76
2021/07/15 00:03:05;;;;;;;11.88;4.80;;;;;;;23.05;84.46;99645.16;5054511;28;20055;-76
2021/07/15 00:05:35;;;;;;;10.85;4.88;;;;;;;22.68;87.11;99648.72;5056441;28;20484;-76
2021/07/15 00:08:04;;;;;;;11.90;5.40;;;;;;;22.80;87.12;99642.69;5055861;28;20133;-77
2021/07/15 00:10:39;;;;;;;12.18;5.20;;;;;;;22.68;88.02;99651.44;5055677;28;20047;-77
2021/07/15 00:13:09;;;;;;;10.55;5.30;;;;;;;22.57;89.51;99658.19;5055874;28;20126;-77
2021/07/15 00:15:41;;;;;;;13.50;5.43;;;;;;;22.57;90.09;99658.19;5055686;28;20041;-78
2021/07/15 00:18:12;;;;;;;12.52;5.43;;;;;;;22.59;88.68;99656.16;5054450;28;20056;-77
2021/07/15 00:20:43;;;;;;;10.20;4.97;;;;;;;22.89;86.10;99672.53;5055532;28;20079;-82
2021/07/15 00:23:12;;;;;;;13.38;5.50;;;;;;;22.76;86.96;99668.53;5055798;28;20446;-80
2021/07/15 00:25:43;;;;;;;11.75;5.40;;;;;;;22.78;87.67;99669.22;5055311;28;20047;-82
2021/07/15 00:28:13;;;;;;;10.70;5.38;;;;;;;22.91;86.82;99681.34;5055452;28;20044;-80
2021/07/15 00:30:41;;;;;;;10.60;5.30;;;;;;;22.95;85.63;99680.78;5055011;28;20068;-80
2021/07/15 00:33:10;;;;;;;11.65;5.30;;;;;;;22.96;84.97;99697.94;5055162;28;20407;-78
2021/07/15 00:35:39;;;;;;;11.43;5.53;;;;;;;22.95;85.84;99693.53;5055206;28;20559;-77
2021/07/15 00:38:09;;;;;;;11.77;5.60;;;;;;;22.88;86.24;99701.63;5055720;28;20053;-77
2021/07/15 00:40:39;;;;;;;14.02;5.63;;;;;;;22.87;87.04;99701.78;5055361;28;20088;-76
2021/07/15 00:43:09;;;;;;;14.95;5.90;;;;;;;22.77;88.05;99686.53;5055430;28;20272;-76
2021/07/15 00:45:37;;;;;;;15.98;5.95;;;;;;;22.81;88.41;99682.44;5055168;28;20053;-75
2021/07/15 00:48:07;;;;;;;14.20;6.32;;;;;;;22.60;89.39;99678.75;5054781;28;20045;-76
2021/07/15 00:50:35;;;;;;;13.68;6.38;;;;;;;22.54;88.18;99683.03;5055008;28;20052;-76
2021/07/15 00:53:05;;;;;;;10.52;6.25;;;;;;;22.59;88.75;99677.91;5054599;28;20041;-76
2021/07/15 00:55:36;;;;;;;12.32;6.15;;;;;;;22.70;87.42;99688.31;5054914;28;20387;-76
2021/07/15 00:58:08;;;;;;;12.35;6.45;;;;;;;22.82;87.36;99692.28;5053732;28;20127;-76
2021/07/15 01:00:41;;;;;;;11.18;6.45;;;;;;;22.89;88.08;99684.25;5055167;28;20045;-76
2021/07/15 01:03:10;;;;;;;13.25;6.75;;;;;;;22.55;90.51;99673.84;5054836;28;20126;-76
2021/07/15 01:05:41;;;;;;;14.10;6.95;;;;;;;22.68;90.21;99682.22;5054435;28;20096;-75
2021/07/15 01:08:10;;;;;;;13.98;6.68;;;;;;;22.63;90.20;99675.63;5054868;28;20049;-75
2021/07/15 01:10:42;;;;;;;13.38;6.72;;;;;;;22.58;91.28;99676.16;5054724;28;20499;-75
2021/07/15 01:13:23;;;;;;;13.55;7.45;;;;;;;22.49;92.34;99677.31;5055154;28;20073;-75
2021/07/15 01:16:13;;;;;;;12.57;6.85;;;;;;;22.53;91.89;99684.06;5054478;28;20052;-76
2021/07/15 01:18:56;;;;;;;14.95;6.50;;;;;;;22.61;92.72;99659.53;5054281;28;20471;-75
2021/07/15 01:22:02;;;;;;;14.07;7.03;;;;;;;22.57;90.98;99652.75;5054712;28;20087;-74
2021/07/15 01:25:10;;;;;;;12.10;6.75;;;;;;;22.52;90.74;99653.31;5054235;28;20395;-74
2021/07/15 01:27:55;;;;;;;12.60;6.57;;;;;;;22.40;94.54;99656.66;5016938;28;20200;-74
2021/07/15 01:30:28;;;;;;;12.18;6.70;;;;;;;22.43;94.09;99653.56;5054276;28;20507;-74
2021/07/15 01:33:03;;;;;;;15.23;6.95;;;;;;;22.40;94.15;99662.09;5053760;28;20045;-74
2021/07/15 01:35:40;;;;;;;13.93;6.78;;;;;;;22.37;95.70;99649.69;5054362;28;20045;-75
2021/07/15 01:38:09;;;;;;;12.40;6.88;;;;;;;22.35;94.43;99637.31;5053955;28;20499;-75
2021/07/15 01:40:46;;;;;;;12.68;7.32;;;;;;;22.35;97.21;99632.75;5054072;28;20044;-74
2021/07/15 01:43:23;;;;;;;14.18;6.88;;;;;;;22.34;95.45;99636.47;5053949;28;20446;-74
2021/07/15 01:45:53;;;;;;;11.63;7.38;;;;;;;22.43;94.84;99632.66;5051483;28;20487;-74
2021/07/15 01:48:23;;;;;;;12.05;6.63;;;;;;;22.85;93.46;99623.09;5054050;28;20047;-73
2021/07/15 01:50:51;;;;;;;12.13;7.38;;;;;;;22.71;94.19;99638.34;5053837;28;20458;-73
2021/07/15 01:53:20;;;;;;;13.40;7.00;;;;;;;22.41;95.33;99645.59;5054200;28;20048;-73
2021/07/15 01:55:49;;;;;;;15.25;7.40;;;;;;;22.37;95.39;99665.16;5052185;28;20049;-73
2021/07/15 01:58:19;;;;;;;13.25;7.20;;;;;;;22.74;91.99;99677.91;5053766;28;20464;-73
2021/07/15 02:00:48;;;;;;;15.27;7.45;;;;;;;22.85;91.14;99689.22;5053688;28;20509;-73
2021/07/15 02:03:19;;;;;;;20.75;7.60;;;;;;;22.75;91.57;99704.06;5053806;28;20067;-73
2021/07/15 02:05:49;;;;;;;21.70;9.35;;;;;;;22.74;94.67;99703.22;5052628;28;20049;-75
2021/07/15 02:08:18;;;;;;;15.32;7.47;;;;;;;22.78;94.18;99671.94;5053066;28;20055;-74
2021/07/15 02:10:47;;;;;;;16.58;7.55;;;;;;;22.48;96.43;99675.59;5053723;28;20045;-78
2021/07/15 02:13:15;;;;;;;18.73;8.43;;;;;;;22.37;98.00;99674.16;5053921;28;20044;-74
2021/07/15 02:15:45;;;;;;;15.85;8.30;;;;;;;22.28;98.79;99648.06;5052089;28;20132;-73
2021/07/15 02:18:17;;;;;;;15.48;8.80;;;;;;;22.26;100.00;99640.09;5053596;28;20140;-73
2021/07/15 02:20:50;;;;;;;14.88;8.45;;;;;;;22.26;100.00;99650.97;5053252;28;20037;-74
2021/07/15 02:23:20;;;;;;;14.52;8.32;;;;;;;22.31;100.00;99663.19;5053930;28;20103;-75
2021/07/15 02:25:51;;;;;;;16.52;8.20;;;;;;;22.45;99.66;99659.66;5053160;28;20049;-77
2021/07/15 02:28:22;;;;;;;18.08;8.45;;;;;;;22.44;99.56;99668.84;5053375;28;20040;-74
2021/07/15 02:30:55;;;;;;;15.40;8.55;;;;;;;22.44;100.00;99679.72;5052857;28;20128;-75
2021/07/15 02:33:27;;;;;;;18.70;8.77;;;;;;;22.27;96.33;99690.69;5053261;28;20045;-77
2021/07/15 02:36:02;;;;;;;16.48;9.10;;;;;;;22.32;98.27;99700.19;5051752;28;20053;-77
2021/07/15 02:38:33;;;;;;;19.27;9.63;;;;;;;22.35;99.79;99724.28;5053201;28;20037;-74
2021/07/15 02:41:01;;;;;;;17.98;9.60;;;;;;;22.34;99.84;99747.03;5052993;28;20044;-74
2021/07/15 02:43:30;;;;;;;16.75;9.13;;;;;;;22.38;100.00;99742.91;5051786;28;20044;-74
2021/07/15 02:45:58;;;;;;;17.08;8.77;;;;;;;22.54;96.81;99734.66;5053055;28;20103;-75
2021/07/15 02:48:27;;;;;;;17.15;8.90;;;;;;;22.49;98.82;99745.25;5053485;28;20045;-75
2021/07/15 02:50:56;;;;;;;17.88;9.40;;;;;;;22.42;99.71;99752.41;5052824;28;20049;-75
2021/07/15 02:53:28;;;;;;;16.45;9.75;;;;;;;22.38;99.35;99756.50;5053248;28;20087;-75
2021/07/15 02:56:09;;;;;;;15.00;9.02;;;;;;;22.31;99.41;99761.00;5052569;28;20510;-75
2021/07/15 02:58:45;;;;;;;15.20;9.52;;;;;;;22.47;99.05;99744.56;5053113;28;20040;-74
2021/07/15 03:01:20;;;;;;;19.13;9.25;;;;;;;22.54;97.30;99742.81;5052657;28;20045;-74
2021/07/15 03:03:55;;;;;;;16.08;9.05;;;;;;;22.68;95.82;99742.03;5053122;28;20071;-74
2021/07/15 03:06:32;;;;;;;14.57;8.70;;;;;;;22.69;96.81;99738.28;5052616;28;20450;-75
2021/07/15 03:09:05;;;;;;;15.82;9.43;;;;;;;22.42;97.99;99727.97;5052581;28;20045;-75
2021/07/15 03:11:38;;;;;;;20.70;9.52;;;;;;;22.43;99.56;99737.81;5052947;28;20398;-74
2021/07/15 03:14:08;;;;;;;17.95;9.55;;;;;;;22.47;100.00;99739.97;5052418;28;20041;-74
2021/07/15 03:16:39;;;;;;;19.15;9.98;;;;;;;22.36;100.00;99725.97;5052231;28;20406;-73
2021/07/15 03:19:10;;;;;;;19.58;9.73;;;;;;;22.21;100.00;99717.75;5052234;28;20049;-74
2021/07/15 03:21:43;;;;;;;18.90;10.73;;;;;;;22.18;100.00;99729.81;5052906;28;20053;-73
2021/07/15 03:24:12;;;;;;;;;;;;;;;22.20;100.00;99721.50;5052733;28;20037;-74
2021/07/15 03:26:44;;;;;;;18.88;10.05;;;;;;;22.50;100.00;99689.84;5052422;28;19928;-74
2021/07/15 03:29:13;;;;;;;15.90;10.25;;;;;;;22.48;100.00;99706.31;5052385;28;20083;-74
2021/07/15 03:31:42;;;;;;;18.73;10.68;;;;;;;22.28;100.00;99724.13;5052346;28;20041;-74
2021/07/15 03:34:14;;;;;;;17.77;9.68;;;;;;;22.25;100.00;99736.22;5052031;28;20056;-74
2021/07/15 03:36:48;;;;;;;17.17;10.68;;;;;;;22.22;100.00;99762.91;5052479;28;20114;-74
2021/07/15 03:39:18;;;;;;;21.48;11.90;;;;;;;22.23;100.00;99795.31;5052143;28;20064;-74
2021/07/15 03:41:48;;;;;;;19.17;10.30;;;;;;;22.31;100.00;99821.59;5052275;28;20049;-76
2021/07/15 03:44:18;;;;;;;20.63;10.90;;;;;;;22.26;100.00;99846.56;5052244;28;20446;-76
2021/07/15 03:46:47;;;;;;;16.80;10.80;;;;;;;22.24;100.00;99847.78;5052535;28;20048;-76
2021/07/15 03:49:18;;;;;;;19.65;10.90;;;;;;;22.23;100.00;99808.91;5052104;28;20546;-76
2021/07/15 03:51:49;;;;;;;24.77;11.70;;;;;;;22.25;100.00;99768.81;5052664;28;20037;-76
2021/07/15 03:54:21;;;;;;;21.92;12.20;;;;;;;22.23;100.00;99760.00;5051077;28;20491;-75
2021/07/15 03:56:51;;;;;;;18.67;10.43;;;;;;;22.14;100.00;99755.66;5052519;28;20044;-75
2021/07/15 03:59:21;;;;;;;19.58;10.52;;;;;;;22.13;100.00;99724.06;5052285;28;20044;-75
2021/07/15 04:02:02;;;;;;;15.25;9.63;;;;;;;22.32;100.00;99711.91;5052129;28;20073;-74
2021/07/15 04:04:35;;;;;;;19.05;10.25;;;;;;;22.44;100.00;99690.56;5052123;28;20045;-74
2021/07/15 04:07:07;;;;;;;16.38;9.90;;;;;;;22.43;98.19;99694.31;5051515;28;20507;-75
2021/07/15 04:09:38;;;;;;;18.88;10.20;;;;;;;22.26;100.00;99691.72;5055616;28;20112;-79
2021/07/15 04:12:10;;;;;;;17.58;10.13;;;;;;;22.18;100.00;99702.63;5056182;28;20044;-80
2021/07/15 04:15:04;;;;;;;21.73;10.70;;;;;;;22.14;100.00;99712.19;5056591;28;20045;-81
2021/07/15 04:17:36;;;;;;;15.48;10.20;;;;;;;22.07;100.00;99711.22;5049429;28;20067;-79
2021/07/15 04:20:08;;;;;;;15.35;10.65;;;;;;;22.05;100.00;99718.66;5055664;28;20124;-79
2021/07/15 04:22:40;;;;;;;25.88;11.60;;;;;;;22.11;100.00;99728.00;5055679;28;20049;-77
2021/07/15 04:25:12;;;;;;;19.55;12.25;;;;;;;22.25;100.00;99732.66;5054339;28;20049;-75
2021/07/15 04:27:43;;;;;;;16.80;10.93;;;;;;;22.54;100.00;99737.38;5055549;28;20090;-75
2021/07/15 04:30:13;;;;;;;19.00;10.77;;;;;;;23.08;99.45;99738.13;5055497;28;20091;-75
2021/07/15 04:32:47;;;;;;;14.50;9.57;;;;;;;23.34;97.89;99748.53;5055701;28;20049;-75
2021/07/15 04:35:17;;;;;;;18.70;10.38;;;;;;;23.30;98.96;99741.78;5054817;28;20049;-78
2021/07/15 04:37:48;;;;;;;19.05;10.48;;;;;;;23.36;98.17;99746.50;5055385;28;20395;-77
2021/07/15 04:40:19;;;;;;;15.15;9.50;;;;;;;23.46;95.36;99750.81;5054714;28;20135;-75
2021/07/15 04:42:50;;;;;;;17.92;9.43;;;;;;;24.26;90.57;99751.66;5055084;28;20037;-75
2021/07/15 04:45:19;;;;;;;17.55;8.95;;;;;;;24.79;86.49;99754.09;5054881;28;20179;-76
2021/07/15 04:47:49;;;;;;;17.20;9.20;;;;;;;24.14;89.15;99760.53;5055061;28;20044;-72
2021/07/15 04:50:19;;;;;;;18.52;9.32;;;;;;;23.61;92.66;99770.75;5053171;28;20077;-72
2021/07/15 04:52:54;;;;;;;16.00;9.55;;;;;;;23.34;94.42;99770.31;5054823;28;20040;-73
2021/07/15 04:55:25;;;;;;;17.67;10.65;;;;;;;23.22;96.70;99770.97;5054809;28;20102;-75
2021/07/15 04:57:56;;;;;;;18.13;10.38;;;;;;;23.07;96.80;99779.13;5054986;28;20120;-75
2021/07/15 05:00:26;;;;;;;18.58;10.65;;;;;;;22.98;98.33;99785.66;5055156;28;20045;-79
2021/07/15 05:03:00;;;;;;;16.05;10.60;;;;;;;22.88;98.59;99785.91;5054868;28;20052;-75
2021/07/15 05:05:28;;;;;;;19.27;11.32;;;;;;;22.77;100.00;99799.88;5054740;28;20094;-77
2021/07/15 05:07:58;;;;;;;15.93;10.50;;;;;;;22.77;99.93;99817.03;5054812;28;20098;-76
2021/07/15 05:10:26;;;;;;;20.05;11.85;;;;;;;22.77;99.70;99816.19;5054769;28;20486;-74
2021/07/15 05:12:55;;;;;;;19.27;10.90;;;;;;;22.69;100.00;99822.56;5054272;28;20063;-74
2021/07/15 05:15:23;;;;;;;25.70;12.82;;;;;;;22.75;99.81;99824.53;5053868;28;20099;-74
2021/07/15 05:17:52;;;;;;;22.98;13.90;;;;;;;22.75;100.00;99838.13;5053813;28;20144;-74
2021/07/15 05:20:20;;;;;;;22.48;13.45;;;;;;;22.71;100.00;99839.53;5053278;28;20128;-74
2021/07/15 05:22:49;;;;;;;21.05;11.57;;;;;;;22.82;99.42;99841.81;5054527;28;20407;-73
2021/07/15 05:25:18;;;;;;;17.95;10.85;;;;;;;22.84;98.12;99850.66;5054190;28;20045;-73
2021/07/15 05:27:47;;;;;;;18.92;10.93;;;;;;;23.00;97.25;99844.28;5054459;28;20041;-73
2021/07/15 05:30:16;;;;;;;16.58;10.73;;;;;;;23.08;96.75;99846.09;5054229;28;20502;-73
2021/07/15 05:32:44;;;;;;;20.17;11.07;;;;;;;23.09;96.93;99848.63;5054523;28;20549;-73
2021/07/15 05:35:13;;;;;;;21.05;11.90;;;;;;;23.13;97.82;99849.94;5053736;28;20041;-74
2021/07/15 05:37:42;;;;;;;21.80;12.02;;;;;;;23.24;97.45;99847.78;5054354;28;20055;-74
2021/07/15 05:40:12;;;;;;;20.17;11.73;;;;;;;23.26;96.01;99838.44;5053939;28;20044;-73
2021/07/15 05:42:43;;;;;;;17.90;11.77;;;;;;;23.40;96.16;99829.44;5052523;28;20078;-74
2021/07/15 05:45:11;;;;;;;17.80;11.13;;;;;;;23.49;93.50;99829.38;5052452;28;20495;-72
2021/07/15 05:47:40;;;;;;;17.30;11.07;;;;;;;23.72;93.15;99821.16;5054066;28;20037;-73
2021/07/15 05:50:09;;;;;;;16.92;10.15;;;;;;;23.74;91.32;99825.41;5053587;28;20045;-73
2021/07/15 05:52:39;;;;;;;15.82;9.85;;;;;;;23.91;90.29;99826.03;5053836;28;20037;-72
2021/07/15 05:55:12;;;;;;;16.85;9.70;;;;;;;23.92;90.08;99825.84;5053839;28;20541;-73
2021/07/15 05:57:41;;;;;;;18.95;9.65;;;;;;;23.70;90.07;99838.53;5053879;28;20430;-72
2021/07/15 06:00:13;;;;;;;18.10;9.65;;;;;;;23.99;88.16;99840.41;5053581;28;20435;-73
2021/07/15 06:02:43;;;;;;;18.20;10.02;;;;;;;25.76;82.27;99833.44;5052413;28;20067;-72
2021/07/15 06:05:27;;;;;;;15.05;8.73;;;;;;;26.92;74.82;99828.00;5053243;28;20071;-73
2021/07/15 06:07:56;;;;;;;19.25;9.35;;;;;;;26.28;74.68;99836.66;5053447;28;20055;-73
2021/07/15 06:10:25;;;;;;;14.57;8.68;;;;;;;25.88;75.34;99831.00;5053373;28;20045;-73
2021/07/15 06:12:55;;;;;;;16.50;9.00;;;;;;;25.16;78.67;99834.00;5053396;28;20075;-73
2021/07/15 06:15:24;;;;;;;16.20;8.27;;;;;;;24.82;80.35;99830.94;5053414;28;20490;-74
2021/07/15 06:17:53;;;;;;;18.58;9.30;;;;;;;25.11;82.19;99829.16;5053519;28;20501;-75
2021/07/15 06:20:21;;;;;;;14.75;8.95;;;;;;;27.10;73.92;99829.13;5053052;28;20529;-73
2021/07/15 06:22:49;;;;;;;17.90;8.93;;;;;;;28.29;67.61;99835.53;5053302;28;20400;-72
2021/07/15 06:25:18;;;;;;;16.92;8.25;;;;;;;28.79;64.46;99828.28;5053041;28;20067;-72
2021/07/15 06:27:46;;;;;;;13.88;8.45;;;;;;;29.36;62.76;99837.41;5053064;28;20052;-72
2021/07/15 06:30:16;;;;;;;16.27;8.63;;;;;;;30.19;60.25;99832.34;5053225;28;20037;-71
2021/07/15 06:32:44;;;;;;;15.75;7.97;;;;;;;30.32;57.59;99842.38;5051702;28;20053;-71
2021/07/15 06:35:16;;;;;;;17.15;8.52;;;;;;;30.57;58.15;99838.63;5053097;28;20044;-72
2021/07/15 06:37:50;;;;;;;16.17;8.30;;;;;;;30.71;56.32;99841.03;5053177;28;20459;-71
2021/07/15 06:40:20;;;;;;;16.17;9.02;;;;;;;29.45;59.25;99841.53;5052486;28;20480;-71
2021/07/15 06:42:50;;;;;;;16.73;8.20;;;;;;;27.59;63.72;99841.53;5052991;28;20048;-70
2021/07/15 06:45:19;;;;;;;17.38;8.82;;;;;;;26.57;66.82;99832.78;5052437;28;20491;-70
2021/07/15 06:47:48;;;;;;;15.77;8.55;;;;;;;26.01;70.44;99832.94;5053143;28;20044;-72
2021/07/15 06:50:19;;;;;;;16.67;9.38;;;;;;;25.61;71.93;99824.50;5051055;28;20056;-72
2021/07/15 06:52:47;;;;;;;13.63;8.95;;;;;;;25.44;72.69;99823.94;5052822;28;20045;-72
2021/07/15 06:55:17;;;;;;;18.73;9.70;;;;;;;25.19;75.63;99823.56;5052672;28;20068;-71
2021/07/15 06:57:47;;;;;;;16.13;9.27;;;;;;;24.90;76.82;99821.78;5052784;28;20048;-71
2021/07/15 07:00:18;;;;;;;15.52;8.77;;;;;;;24.88;76.15;99818.38;5052451;28;20522;-71
2021/07/15 07:02:48;;;;;;;15.23;8.85;;;;;;;24.71;77.35;99806.91;5052689;28;20064;-71
2021/07/15 07:05:17;;;;;;;15.57;8.00;;;;;;;24.70;76.06;99809.81;5052438;28;20045;-69
2021/07/15 07:07:46;;;;;;;20.98;8.82;;;;;;;24.84;77.85;99807.03;5052978;28;20045;-69
2021/07/15 07:10:17;;;;;;;17.65;8.43;;;;;;;24.83;75.61;99804.50;5052594;28;20041;-71
2021/07/15 07:12:46;;;;;;;17.00;8.40;;;;;;;24.83;76.49;99804.50;5052696;28;20116;-71
2021/07/15 07:15:17;;;;;;;19.77;8.82;;;;;;;24.67;75.80;99797.41;5052293;28;20075;-71
2021/07/15 07:17:50;;;;;;;14.10;8.07;;;;;;;24.63;77.86;99798.03;5052647;28;20057;-69
2021/07/15 07:20:19;;;;;;;20.15;8.55;;;;;;;24.75;77.37;99799.19;5052333;28;20208;-70
2021/07/15 07:22:49;;;;;;;16.58;8.57;;;;;;;24.91;76.41;99784.44;5052533;28;20045;-72
2021/07/15 07:25:18;;;;;;;20.00;9.27;;;;;;;25.29;75.54;99801.38;5052895;28;20044;-69
2021/07/15 07:27:48;;;;;;;14.15;9.48;;;;;;;25.87;74.33;99808.31;5052427;28;20041;-71
2021/07/15 07:30:18;;;;;;;20.13;9.60;;;;;;;26.13;73.61;99802.09;5052358;28;20053;-71
2021/07/15 07:32:48;;;;;;;15.93;10.43;;;;;;;26.45;73.96;99810.69;5052518;28;20037;-71
2021/07/15 07:35:17;;;;;;;17.83;10.70;;;;;;;26.44;71.95;99814.44;5052283;28;20041;-71
2021/07/15 07:37:46;;;;;;;19.17;11.73;;;;;;;26.50;74.09;99809.00;5052645;28;20045;-71
2021/07/15 07:40:16;;;;;;;21.75;12.38;;;;;;;26.38;72.41;99801.59;5052279;28;20048;-71
2021/07/15 07:42:46;;;;;;;21.65;13.20;;;;;;;26.40;74.33;99814.00;5052773;28;20095;-71
2021/07/15 07:45:16;;;;;;;22.10;15.57;;;;;;;26.30;74.23;99807.22;5056176;28;20091;-71
2021/07/15 07:47:44;;;;;;;25.15;14.32;;;;;;;26.40;72.11;99814.00;5056091;28;20041;-71
2021/07/15 07:50:16;;;;;;;23.23;13.93;;;;;;;26.44;74.62;99806.22;5055914;28;20124;-72
2021/07/15 07:52:44;;;;;;;26.08;14.98;;;;;;;26.51;72.84;99815.31;5056608;28;20068;-71
2021/07/15 07:55:13;;;;;;;25.73;14.60;;;;;;;26.50;73.96;99814.47;5055750;28;20049;-72
2021/07/15 07:57:46;;;;;;;25.05;14.20;;;;;;;26.42;71.18;99811.06;5056118;28;20045;-71
2021/07/15 08:00:17;;;;;;;23.27;14.90;;;;;;;26.44;72.23;99806.22;5055847;28;20043;-72
2021/07/15 08:02:48;;;;;;;22.35;13.80;;;;;;;26.52;71.40;99812.34;5056167;28;20514;-71
2021/07/15 08:05:21;;;;;;;23.20;14.75;;;;;;;26.58;72.55;99809.88;5055690;28;20095;-71
2021/07/15 08:07:51;;;;;;;22.98;13.57;;;;;;;26.64;70.95;99812.63;5056083;28;20037;-71
2021/07/15 08:10:21;;;;;;;22.30;13.63;;;;;;;26.92;68.92;99811.59;5055533;28;20040;-71
2021/07/15 08:12:51;;;;;;;22.05;14.05;;;;;;;26.87;68.45;99808.66;5054772;28;20496;-71
2021/07/15 08:15:19;;;;;;;28.00;14.55;;;;;;;27.00;67.69;99816.88;5055530;28;20045;-71
2021/07/15 08:17:48;;;;;;;25.65;14.63;;;;;;;26.85;66.99;99810.75;5055642;28;20061;-71
2021/07/15 08:20:18;;;;;;;22.30;13.70;;;;;;;26.87;68.24;99808.66;5055474;28;20103;-71
2021/07/15 08:22:49;;;;;;;29.25;15.00;;;;;;;26.91;67.07;99815.38;5055698;28;20490;-71
2021/07/15 08:25:22;;;;;;;22.38;13.70;;;;;;;26.92;67.51;99812.44;5055376;28;20071;-71
2021/07/15 08:27:51;;;;;;;22.05;14.18;;;;;;;27.08;63.99;99812.06;5055538;28;20127;-71
2021/07/15 08:30:21;;;;;;;20.60;12.35;;;;;;;27.10;64.12;99809.94;5055151;28;20056;-71
2021/07/15 08:32:49;;;;;;;20.17;12.20;;;;;;;27.24;63.31;99815.44;5055860;28;20408;-70
2021/07/15 08:35:27;;;;;;;23.85;13.48;;;;;;;27.22;63.79;99823.88;5055364;28;20442;-70
2021/07/15 08:37:56;;;;;;;25.58;13.50;;;;;;;27.19;63.39;99824.28;5055301;28;20053;-70
2021/07/15 08:40:25;;;;;;;26.60;16.80;;;;;;;27.25;66.80;99823.44;5055199;28;20446;-70
2021/07/15 08:42:54;;;;;;;21.23;12.82;;;;;;;27.24;63.90;99819.03;5055391;28;20045;-70
2021/07/15 08:45:23;;;;;;;18.73;11.93;;;;;;;27.20;62.44;99820.47;5054724;28;20063;-70
2021/07/15 08:47:52;;;;;;;21.52;12.23;;;;;;;27.34;62.92;99818.59;5054945;28;20049;-70
2021/07/15 08:50:21;;;;;;;14.70;9.05;;;;;;;27.42;61.73;99820.28;5054632;28;20037;-71
2021/07/15 08:52:51;;;;;;;19.27;10.30;;;;;;;27.38;59.24;99819.84;5055097;28;20052;-71
2021/07/15 08:58:05;;;;;;;20.67;12.52;;;;;;;27.56;60.21;99819.22;5034366;28;20061;-71
2021/07/15 09:00:34;;;;;;;20.88;13.00;;;;;;;27.65;60.78;99820.66;5054584;28;20480;-71
2021/07/15 09:03:02;;;;;;;17.05;11.48;;;;;;;27.56;58.61;99817.31;5054874;28;20069;-70
2021/07/15 09:05:31;;;;;;;16.35;10.68;;;;;;;27.68;58.05;99812.03;5054641;28;20092;-71
2021/07/15 09:08:02;;;;;;;14.57;9.30;;;;;;;27.78;55.56;99817.06;5054714;28;20048;-70
2021/07/15 09:10:30;;;;;;;11.48;5.85;;;;;;;27.79;49.17;99813.28;5054555;28;20120;-70
2021/07/15 09:12:59;;;;;;;10.02;4.22;;;;;;;27.79;45.58;99814.13;5054716;28;20041;-70
2021/07/15 09:15:28;;;;;;;8.43;3.90;;;;;;;27.87;45.01;99805.66;5054516;28;20060;-71
2021/07/15 09:17:56;;;;;;;8.48;4.75;;;;;;;27.94;46.57;99811.97;5054758;28;20056;-70
2021/07/15 09:20:28;;;;;;;13.65;5.97;;;;;;;27.91;45.92;99808.84;5054246;28;20131;-71
2021/07/15 09:23:03;;;;;;;9.87;4.30;;;;;;;27.93;43.23;99810.31;5054752;28;20041;-71
2021/07/15 09:25:56;;;;;;;11.23;5.00;;;;;;;27.98;44.22;99812.38;5054250;28;20408;-71
2021/07/15 09:28:29;;;;;;;5.97;3.40;;;;;;;28.05;37.89;99807.72;5052917;28;20512;-71
2021/07/15 09:31:12;;;;;;;;;;;;;;;28.13;38.55;99809.38;5054894;28;20435;-71
2021/07/15 09:33:41;;;;;;;6.47;3.40;;;;;;;28.13;36.75;99803.91;5054070;28;20020;-71
2021/07/15 09:36:14;;;;;;;7.90;4.13;;;;;;;28.06;39.17;99803.09;5054206;28;20045;-71
2021/07/15 09:38:46;;;;;;;12.82;4.25;;;;;;;28.12;41.96;99804.97;5054056;28;20041;-71
2021/07/15 09:41:17;;;;;;;10.93;5.10;;;;;;;28.32;43.78;99803.00;5054366;28;20049;-71
2021/07/15 09:43:47;;;;;;;10.35;5.55;;;;;;;28.38;43.17;99795.81;5052633;28;20492;-71
2021/07/15 09:46:26;;;;;;;11.00;5.40;;;;;;;28.27;42.61;99789.06;5054358;28;20456;-70
2021/07/15 09:49:04;;;;;;;9.27;4.68;;;;;;;28.14;42.21;99787.22;5053769;28;20041;-72
2021/07/15 09:51:41;;;;;;;9.18;5.53;;;;;;;28.17;43.55;99783.22;5053794;28;20090;-71
2021/07/15 09:54:12;;;;;;;12.07;5.30;;;;;;;28.12;43.61;99777.56;5054034;28;20041;-72
2021/07/15 09:56:44;;;;;;;7.63;4.07;;;;;;;28.20;40.33;99780.88;5053601;28;20048;-73
2021/07/15 09:59:15;;;;;;;5.32;2.65;;;;;;;28.21;38.44;99773.50;5053657;28;20044;-72
2021/07/15 10:01:46;;;;;;;6.18;3.42;;;;;;;28.26;40.14;99779.16;5053565;28;20037;-72
2021/07/15 10:04:24;;;;;;;7.43;3.15;;;;;;;28.28;39.17;99770.72;5053824;28;20106;-72
2021/07/15 10:06:54;;;;;;;6.95;3.20;;;;;;;28.25;39.55;99774.75;5053105;28;20047;-72
2021/07/15 10:09:26;;;;;;;6.22;3.47;;;;;;;28.39;39.72;99770.91;5053568;28;20384;-72
2021/07/15 10:11:56;;;;;;;6.57;2.90;;;;;;;28.43;36.78;99777.63;5053753;28;20052;-72
2021/07/15 10:14:35;;;;;;;5.68;3.20;;;;;;;28.46;38.34;99776.34;5053366;28;20542;-72
2021/07/15 10:17:04;;;;;;;9.35;3.10;;;;;;;28.60;38.46;99783.44;5053351;28;20053;-72
2021/07/15 10:19:33;;;;;;;7.55;3.10;;;;;;;28.71;37.42;99784.63;5053166;28;20102;-72
2021/07/15 10:22:07;;;;;;;8.52;3.00;;;;;;;28.67;37.31;99780.66;5053351;28;20051;-73
2021/07/15 10:24:39;;;;;;;7.15;2.90;;;;;;;28.76;37.21;99779.34;5053370;28;20495;-72
2021/07/15 10:27:10;;;;;;;7.90;2.88;;;;;;;28.80;35.58;99778.66;5053681;28;20045;-72
2021/07/15 10:29:40;;;;;;;7.95;2.90;;;;;;;28.87;34.82;99778.63;5051647;28;20530;-72
2021/07/15 10:32:10;;;;;;;4.65;2.47;;;;;;;28.97;35.70;99778.16;5053423;28;20051;-73
2021/07/15 10:34:39;;;;;;;6.50;2.35;;;;;;;29.04;34.39;99768.78;5052790;28;20052;-72
2021/07/15 10:37:07;;;;;;;6.78;2.38;;;;;;;29.08;34.06;99767.28;5053309;28;20112;-72
2021/07/15 10:39:39;;;;;;;7.30;2.90;;;;;;;29.04;34.69;99774.28;5053000;28;20049;-72
2021/07/15 10:42:08;;;;;;;5.80;2.70;;;;;;;29.00;34.98;99770.31;5053119;28;20037;-73
2021/07/15 10:44:38;;;;;;;6.30;2.35;;;;;;;29.10;33.97;99763.47;5052914;28;20390;-72
2021/07/15 10:47:07;;;;;;;5.95;2.75;;;;;;;29.14;34.74;99770.19;5052706;28;20052;-72
2021/07/15 10:49:38;;;;;;;6.15;2.53;;;;;;;29.15;33.38;99769.13;5052795;28;20466;-72
2021/07/15 10:52:09;;;;;;;5.35;2.80;;;;;;;29.30;33.90;99758.63;5053029;28;20045;-72
2021/07/15 10:54:40;;;;;;;5.50;2.60;;;;;;;29.32;33.48;99770.22;5052902;28;20092;-73
2021/07/15 10:57:09;;;;;;;7.65;2.78;;;;;;;29.34;34.31;99763.47;5052892;28;20068;-72
2021/07/15 10:59:37;;;;;;;6.20;2.85;;;;;;;29.40;34.88;99761.69;5052866;28;20045;-72
2021/07/15 11:02:20;;;;;;;5.05;2.40;;;;;;;29.40;34.26;99760.84;5053044;28;20102;-72
2021/07/15 11:04:49;;;;;;;5.47;2.60;;;;;;;29.46;33.88;99760.81;5052779;28;20053;-72
2021/07/15 11:07:20;;;;;;;8.13;2.63;;;;;;;29.44;33.96;99757.44;5052769;28;20037;-72
2021/07/15 11:10:12;;;;;;;6.68;2.38;;;;;;;29.34;34.43;99760.72;5052420;28;20105;-71
2021/07/15 11:12:41;;;;;;;5.93;2.70;;;;;;;29.42;32.86;99754.06;5052761;28;20094;-72
2021/07/15 11:15:12;;;;;;;4.90;2.20;;;;;;;29.49;33.84;99760.38;5052798;28;20049;-71
2021/07/15 11:17:47;;;;;;;5.00;2.55;;;;;;;29.59;34.79;99768.09;5052519;28;20479;-73
2021/07/15 11:20:19;;;;;;;5.75;2.80;;;;;;;29.52;33.82;99754.41;5056674;28;20072;-72
2021/07/15 11:22:50;;;;;;;5.28;2.70;;;;;;;29.49;34.29;99757.63;5056472;28;20049;-71
2021/07/15 11:25:33;;;;;;;5.18;2.30;;;;;;;29.43;34.34;99763.97;5057066;28;20047;-71
2021/07/15 11:28:04;;;;;;;4.60;1.98;;;;;;;29.42;32.14;99759.56;5056834;28;20048;-72
2021/07/15 11:30:44;;;;;;;6.53;2.65;;;;;;;29.56;32.37;99761.16;5056483;28;20045;-71
2021/07/15 11:33:39;;;;;;;4.32;2.35;;;;;;;29.72;33.34;99759.69;5055901;28;20057;-72
2021/07/15 11:36:13;;;;;;;6.35;2.58;;;;;;;29.77;32.29;99761.75;5056866;28;20204;-70
2021/07/15 11:38:45;;;;;;;4.93;2.28;;;;;;;29.74;32.96;99759.47;5056256;28;20384;-73
2021/07/15 11:41:16;;;;;;;4.20;2.10;;;;;;;29.75;32.16;99758.41;5056709;28;20045;-72
2021/07/15 11:43:53;;;;;;;6.20;2.17;;;;;;;29.82;30.46;99759.16;5056395;28;20040;-72
2021/07/15 11:46:25;;;;;;;5.45;2.00;;;;;;;29.78;29.22;99757.94;5056495;28;20119;-72